Terminal Aerodrome Forecast
Issued by NWS Sioux Falls, SD

Home | Current Version | Previous Version | Text Only | Print | Product List | Glossary On
Versions: 1 2 3 4 5 6 7 8 9 10 11 12 13 14 15 16 17 18 19
000
FTUS43 KFSD 172327
TAFSUX
TAF
KSUX 172327Z 1800/1824 22004KT P6SM FEW250
     FM180600 15005KT 6SM BR SKC
     FM181300 16005KT P6SM FEW200
     FM181700 20009KT P6SM FEW200=

USA.gov is the U.S. government's official web portal to all federal, state and local government web resources and services.